sensor_id;sensor_type;location;lat;lon;timestamp;P1;durP1;ratioP1;P2;durP2;ratioP2
769;SDS011;368;48.698;9.116;2023-07-08T00:00:07;9.17;;;7.03;;
769;SDS011;368;48.698;9.116;2023-07-08T00:02:36;7.20;;;5.70;;
769;SDS011;368;48.698;9.116;2023-07-08T00:05:03;8.10;;;6.27;;
769;SDS011;368;48.698;9.116;2023-07-08T00:07:32;8.27;;;6.30;;
769;SDS011;368;48.698;9.116;2023-07-08T00:09:59;9.00;;;6.30;;
769;SDS011;368;48.698;9.116;2023-07-08T00:12:25;8.00;;;6.57;;
769;SDS011;368;48.698;9.116;2023-07-08T00:14:52;8.53;;;6.50;;
769;SDS011;368;48.698;9.116;2023-07-08T00:17:19;8.83;;;6.60;;
769;SDS011;368;48.698;9.116;2023-07-08T00:19:46;11.17;;;7.03;;
769;SDS011;368;48.698;9.116;2023-07-08T00:22:13;8.10;;;6.03;;
769;SDS011;368;48.698;9.116;2023-07-08T00:24:42;9.47;;;6.17;;
769;SDS011;368;48.698;9.116;2023-07-08T00:27:10;9.23;;;6.23;;
769;SDS011;368;48.698;9.116;2023-07-08T00:29:39;9.80;;;6.10;;
769;SDS011;368;48.698;9.116;2023-07-08T00:32:10;9.83;;;7.80;;
769;SDS011;368;48.698;9.116;2023-07-08T00:34:37;7.63;;;6.30;;
769;SDS011;368;48.698;9.116;2023-07-08T00:37:04;10.47;;;7.07;;
769;SDS011;368;48.698;9.116;2023-07-08T00:39:31;8.03;;;6.00;;
769;SDS011;368;48.698;9.116;2023-07-08T00:42:00;9.60;;;5.97;;
769;SDS011;368;48.698;9.116;2023-07-08T00:44:27;6.93;;;6.10;;
769;SDS011;368;48.698;9.116;2023-07-08T00:46:56;8.10;;;6.47;;
769;SDS011;368;48.698;9.116;2023-07-08T00:49:31;7.47;;;6.17;;
769;SDS011;368;48.698;9.116;2023-07-08T00:52:20;7.40;;;6.00;;
769;SDS011;368;48.698;9.116;2023-07-08T00:54:50;7.90;;;5.60;;
769;SDS011;368;48.698;9.116;2023-07-08T00:57:19;9.37;;;5.80;;
769;SDS011;368;48.698;9.116;2023-07-08T00:59:48;7.33;;;6.10;;
769;SDS011;368;48.698;9.116;2023-07-08T01:02:19;8.17;;;5.93;;
769;SDS011;368;48.698;9.116;2023-07-08T01:04:49;7.57;;;6.27;;
769;SDS011;368;48.698;9.116;2023-07-08T01:07:19;8.93;;;5.83;;
769;SDS011;368;48.698;9.116;2023-07-08T01:09:50;8.97;;;6.20;;
769;SDS011;368;48.698;9.116;2023-07-08T01:12:21;7.53;;;5.60;;
769;SDS011;368;48.698;9.116;2023-07-08T01:14:52;8.80;;;6.07;;
769;SDS011;368;48.698;9.116;2023-07-08T01:17:20;6.50;;;5.53;;
769;SDS011;368;48.698;9.116;2023-07-08T01:19:48;8.33;;;5.90;;
769;SDS011;368;48.698;9.116;2023-07-08T01:22:17;7.23;;;5.90;;
769;SDS011;368;48.698;9.116;2023-07-08T01:24:44;9.37;;;6.40;;
769;SDS011;368;48.698;9.116;2023-07-08T01:27:13;8.27;;;6.10;;
769;SDS011;368;48.698;9.116;2023-07-08T01:29:45;7.80;;;6.07;;
769;SDS011;368;48.698;9.116;2023-07-08T01:32:12;7.67;;;6.00;;
769;SDS011;368;48.698;9.116;2023-07-08T01:34:43;9.10;;;5.93;;
769;SDS011;368;48.698;9.116;2023-07-08T01:37:19;9.47;;;6.43;;
769;SDS011;368;48.698;9.116;2023-07-08T01:39:46;11.00;;;6.30;;
769;SDS011;368;48.698;9.116;2023-07-08T01:42:13;7.63;;;5.63;;
769;SDS011;368;48.698;9.116;2023-07-08T01:44:40;8.37;;;6.80;;
769;SDS011;368;48.698;9.116;2023-07-08T01:47:08;9.23;;;6.00;;
769;SDS011;368;48.698;9.116;2023-07-08T01:49:40;8.97;;;5.50;;
769;SDS011;368;48.698;9.116;2023-07-08T01:52:09;9.63;;;6.17;;
769;SDS011;368;48.698;9.116;2023-07-08T01:54:38;12.13;;;7.60;;
769;SDS011;368;48.698;9.116;2023-07-08T01:57:05;9.07;;;6.40;;
769;SDS011;368;48.698;9.116;2023-07-08T01:59:32;7.23;;;5.70;;
769;SDS011;368;48.698;9.116;2023-07-08T02:01:59;7.60;;;5.83;;
769;SDS011;368;48.698;9.116;2023-07-08T02:04:26;7.33;;;6.03;;
769;SDS011;368;48.698;9.116;2023-07-08T02:06:56;8.63;;;6.37;;
769;SDS011;368;48.698;9.116;2023-07-08T02:09:24;8.60;;;6.03;;
769;SDS011;368;48.698;9.116;2023-07-08T02:11:53;8.93;;;6.67;;
769;SDS011;368;48.698;9.116;2023-07-08T02:14:20;7.10;;;5.97;;
769;SDS011;368;48.698;9.116;2023-07-08T02:16:47;8.20;;;6.20;;
769;SDS011;368;48.698;9.116;2023-07-08T02:19:14;8.63;;;6.50;;
769;SDS011;368;48.698;9.116;2023-07-08T02:21:41;8.80;;;6.23;;
769;SDS011;368;48.698;9.116;2023-07-08T02:24:08;9.23;;;6.70;;
769;SDS011;368;48.698;9.116;2023-07-08T02:26:35;9.00;;;6.57;;
769;SDS011;368;48.698;9.116;2023-07-08T02:29:03;9.50;;;7.23;;
769;SDS011;368;48.698;9.116;2023-07-08T02:31:30;10.20;;;6.70;;
769;SDS011;368;48.698;9.116;2023-07-08T02:33:57;7.80;;;6.00;;
769;SDS011;368;48.698;9.116;2023-07-08T02:36:23;8.83;;;6.80;;
769;SDS011;368;48.698;9.116;2023-07-08T02:38:51;7.67;;;6.07;;
769;SDS011;368;48.698;9.116;2023-07-08T02:41:17;8.53;;;5.80;;
769;SDS011;368;48.698;9.116;2023-07-08T02:43:45;9.60;;;6.90;;
769;SDS011;368;48.698;9.116;2023-07-08T02:46:13;6.87;;;5.83;;
769;SDS011;368;48.698;9.116;2023-07-08T02:48:39;9.17;;;6.80;;
769;SDS011;368;48.698;9.116;2023-07-08T02:51:06;9.20;;;6.50;;
769;SDS011;368;48.698;9.116;2023-07-08T02:53:34;9.50;;;7.00;;
769;SDS011;368;48.698;9.116;2023-07-08T02:56:01;10.93;;;6.33;;
769;SDS011;368;48.698;9.116;2023-07-08T02:58:28;9.07;;;7.07;;
769;SDS011;368;48.698;9.116;2023-07-08T03:00:56;8.53;;;6.47;;
769;SDS011;368;48.698;9.116;2023-07-08T03:03:27;16.20;;;6.90;;
769;SDS011;368;48.698;9.116;2023-07-08T03:05:54;10.17;;;6.67;;
769;SDS011;368;48.698;9.116;2023-07-08T03:08:21;9.27;;;6.80;;
769;SDS011;368;48.698;9.116;2023-07-08T03:10:54;8.07;;;6.47;;
769;SDS011;368;48.698;9.116;2023-07-08T03:13:21;8.93;;;6.17;;
769;SDS011;368;48.698;9.116;2023-07-08T03:15:49;8.73;;;6.20;;
769;SDS011;368;48.698;9.116;2023-07-08T03:18:16;8.73;;;6.00;;
769;SDS011;368;48.698;9.116;2023-07-08T03:20:44;9.43;;;6.00;;
769;SDS011;368;48.698;9.116;2023-07-08T03:23:13;9.93;;;6.90;;
769;SDS011;368;48.698;9.116;2023-07-08T03:25:40;7.17;;;5.80;;
769;SDS011;368;48.698;9.116;2023-07-08T03:28:07;7.10;;;5.87;;
769;SDS011;368;48.698;9.116;2023-07-08T03:30:40;8.60;;;6.40;;
769;SDS011;368;48.698;9.116;2023-07-08T03:33:06;7.83;;;6.43;;
769;SDS011;368;48.698;9.116;2023-07-08T03:35:33;9.77;;;6.50;;
769;SDS011;368;48.698;9.116;2023-07-08T03:38:02;9.47;;;6.20;;
769;SDS011;368;48.698;9.116;2023-07-08T03:40:29;7.00;;;5.40;;
769;SDS011;368;48.698;9.116;2023-07-08T03:42:56;7.17;;;5.87;;
769;SDS011;368;48.698;9.116;2023-07-08T03:45:23;8.63;;;5.33;;
769;SDS011;368;48.698;9.116;2023-07-08T03:47:51;9.60;;;7.10;;
769;SDS011;368;48.698;9.116;2023-07-08T03:50:18;8.27;;;6.30;;
769;SDS011;368;48.698;9.116;2023-07-08T03:52:47;7.70;;;6.17;;
769;SDS011;368;48.698;9.116;2023-07-08T03:55:16;8.37;;;6.20;;
769;SDS011;368;48.698;9.116;2023-07-08T03:57:43;7.80;;;6.37;;
769;SDS011;368;48.698;9.116;2023-07-08T04:00:10;8.90;;;6.30;;
769;SDS011;368;48.698;9.116;2023-07-08T04:02:38;9.50;;;6.57;;
769;SDS011;368;48.698;9.116;2023-07-08T04:05:05;7.73;;;5.70;;
769;SDS011;368;48.698;9.116;2023-07-08T04:07:33;8.87;;;6.10;;
769;SDS011;368;48.698;9.116;2023-07-08T04:10:00;7.90;;;6.03;;
769;SDS011;368;48.698;9.116;2023-07-08T04:12:28;10.33;;;6.67;;
769;SDS011;368;48.698;9.116;2023-07-08T04:14:55;9.67;;;7.30;;
769;SDS011;368;48.698;9.116;2023-07-08T04:17:22;8.33;;;6.30;;
769;SDS011;368;48.698;9.116;2023-07-08T04:19:49;8.00;;;5.93;;
769;SDS011;368;48.698;9.116;2023-07-08T04:22:16;11.00;;;6.87;;
769;SDS011;368;48.698;9.116;2023-07-08T04:24:43;8.10;;;6.63;;
769;SDS011;368;48.698;9.116;2023-07-08T04:27:11;7.30;;;6.13;;
769;SDS011;368;48.698;9.116;2023-07-08T04:29:42;6.53;;;5.67;;
769;SDS011;368;48.698;9.116;2023-07-08T04:32:09;8.67;;;6.17;;
769;SDS011;368;48.698;9.116;2023-07-08T04:34:36;8.70;;;6.60;;
769;SDS011;368;48.698;9.116;2023-07-08T04:37:03;9.10;;;6.20;;
769;SDS011;368;48.698;9.116;2023-07-08T04:39:30;8.90;;;6.83;;
769;SDS011;368;48.698;9.116;2023-07-08T04:41:57;9.20;;;6.93;;
769;SDS011;368;48.698;9.116;2023-07-08T04:44:24;7.87;;;6.77;;
769;SDS011;368;48.698;9.116;2023-07-08T04:46:54;9.80;;;6.40;;
769;SDS011;368;48.698;9.116;2023-07-08T04:49:23;7.13;;;6.27;;
769;SDS011;368;48.698;9.116;2023-07-08T04:51:53;8.50;;;5.90;;
769;SDS011;368;48.698;9.116;2023-07-08T04:54:19;7.67;;;6.67;;
769;SDS011;368;48.698;9.116;2023-07-08T04:56:47;7.13;;;5.77;;
769;SDS011;368;48.698;9.116;2023-07-08T04:59:15;10.17;;;6.50;;
769;SDS011;368;48.698;9.116;2023-07-08T05:01:43;7.80;;;5.50;;
769;SDS011;368;48.698;9.116;2023-07-08T05:04:12;9.23;;;6.30;;
769;SDS011;368;48.698;9.116;2023-07-08T05:06:41;9.70;;;6.03;;
769;SDS011;368;48.698;9.116;2023-07-08T05:09:08;9.20;;;6.60;;
769;SDS011;368;48.698;9.116;2023-07-08T05:11:38;8.60;;;6.20;;
769;SDS011;368;48.698;9.116;2023-07-08T05:14:05;7.83;;;6.40;;
769;SDS011;368;48.698;9.116;2023-07-08T05:16:33;6.93;;;5.40;;
769;SDS011;368;48.698;9.116;2023-07-08T05:19:01;6.57;;;5.87;;
769;SDS011;368;48.698;9.116;2023-07-08T05:21:30;8.07;;;6.33;;
769;SDS011;368;48.698;9.116;2023-07-08T05:23:58;8.23;;;6.50;;
769;SDS011;368;48.698;9.116;2023-07-08T05:26:25;8.20;;;6.33;;
769;SDS011;368;48.698;9.116;2023-07-08T05:28:52;10.83;;;7.10;;
769;SDS011;368;48.698;9.116;2023-07-08T05:31:19;8.17;;;6.57;;
769;SDS011;368;48.698;9.116;2023-07-08T05:33:46;9.73;;;6.43;;
769;SDS011;368;48.698;9.116;2023-07-08T05:36:12;7.73;;;6.00;;
769;SDS011;368;48.698;9.116;2023-07-08T05:38:40;7.93;;;6.80;;
769;SDS011;368;48.698;9.116;2023-07-08T05:41:07;8.13;;;6.47;;
769;SDS011;368;48.698;9.116;2023-07-08T05:43:34;7.40;;;6.07;;
769;SDS011;368;48.698;9.116;2023-07-08T05:46:01;6.53;;;5.83;;
769;SDS011;368;48.698;9.116;2023-07-08T05:48:28;8.53;;;6.30;;
769;SDS011;368;48.698;9.116;2023-07-08T05:50:55;9.17;;;6.30;;
769;SDS011;368;48.698;9.116;2023-07-08T05:53:22;9.47;;;7.30;;
769;SDS011;368;48.698;9.116;2023-07-08T05:55:50;9.40;;;6.60;;
769;SDS011;368;48.698;9.116;2023-07-08T05:58:17;9.30;;;7.23;;
769;SDS011;368;48.698;9.116;2023-07-08T06:00:44;10.60;;;6.50;;
769;SDS011;368;48.698;9.116;2023-07-08T06:03:11;8.10;;;6.10;;
769;SDS011;368;48.698;9.116;2023-07-08T06:05:38;9.70;;;6.73;;
769;SDS011;368;48.698;9.116;2023-07-08T06:08:05;8.43;;;6.63;;
769;SDS011;368;48.698;9.116;2023-07-08T06:10:33;8.90;;;6.87;;
769;SDS011;368;48.698;9.116;2023-07-08T06:13:01;8.60;;;6.50;;
769;SDS011;368;48.698;9.116;2023-07-08T06:15:29;8.63;;;6.73;;
769;SDS011;368;48.698;9.116;2023-07-08T06:17:56;9.30;;;6.50;;
769;SDS011;368;48.698;9.116;2023-07-08T06:20:27;8.73;;;6.77;;
769;SDS011;368;48.698;9.116;2023-07-08T06:22:54;7.60;;;6.70;;
769;SDS011;368;48.698;9.116;2023-07-08T06:25:21;10.23;;;6.60;;
769;SDS011;368;48.698;9.116;2023-07-08T06:27:48;7.10;;;6.40;;
769;SDS011;368;48.698;9.116;2023-07-08T06:30:16;10.37;;;5.50;;
769;SDS011;368;48.698;9.116;2023-07-08T06:32:43;10.77;;;6.43;;
769;SDS011;368;48.698;9.116;2023-07-08T06:35:09;7.67;;;6.40;;
769;SDS011;368;48.698;9.116;2023-07-08T06:37:36;6.40;;;5.67;;
769;SDS011;368;48.698;9.116;2023-07-08T06:40:03;8.13;;;6.30;;
769;SDS011;368;48.698;9.116;2023-07-08T06:42:31;7.47;;;6.00;;
769;SDS011;368;48.698;9.116;2023-07-08T06:44:58;8.43;;;6.00;;
769;SDS011;368;48.698;9.116;2023-07-08T06:47:26;8.10;;;6.33;;
769;SDS011;368;48.698;9.116;2023-07-08T06:49:52;8.40;;;5.90;;
769;SDS011;368;48.698;9.116;2023-07-08T06:52:19;6.90;;;5.97;;
769;SDS011;368;48.698;9.116;2023-07-08T06:54:46;8.07;;;5.83;;
769;SDS011;368;48.698;9.116;2023-07-08T06:57:13;8.33;;;5.83;;
769;SDS011;368;48.698;9.116;2023-07-08T06:59:39;7.43;;;5.83;;
769;SDS011;368;48.698;9.116;2023-07-08T07:02:07;7.13;;;5.67;;
769;SDS011;368;48.698;9.116;2023-07-08T07:04:36;8.03;;;6.17;;
769;SDS011;368;48.698;9.116;2023-07-08T07:07:03;8.27;;;6.70;;
769;SDS011;368;48.698;9.116;2023-07-08T07:09:30;8.00;;;5.83;;
769;SDS011;368;48.698;9.116;2023-07-08T07:11:56;7.63;;;6.30;;
769;SDS011;368;48.698;9.116;2023-07-08T07:14:23;7.37;;;6.00;;
769;SDS011;368;48.698;9.116;2023-07-08T07:16:50;6.93;;;5.03;;
769;SDS011;368;48.698;9.116;2023-07-08T07:19:17;8.57;;;6.07;;
769;SDS011;368;48.698;9.116;2023-07-08T07:21:46;6.63;;;5.40;;
769;SDS011;368;48.698;9.116;2023-07-08T07:24:12;6.40;;;5.70;;
769;SDS011;368;48.698;9.116;2023-07-08T07:26:39;5.73;;;5.13;;
769;SDS011;368;48.698;9.116;2023-07-08T07:29:06;7.57;;;5.57;;
769;SDS011;368;48.698;9.116;2023-07-08T07:31:33;7.10;;;6.40;;
769;SDS011;368;48.698;9.116;2023-07-08T07:34:00;8.33;;;5.00;;
769;SDS011;368;48.698;9.116;2023-07-08T07:36:28;8.87;;;5.53;;
769;SDS011;368;48.698;9.116;2023-07-08T07:38:56;4.80;;;4.27;;
769;SDS011;368;48.698;9.116;2023-07-08T07:41:23;6.97;;;5.40;;
769;SDS011;368;48.698;9.116;2023-07-08T07:43:49;6.90;;;4.90;;
769;SDS011;368;48.698;9.116;2023-07-08T07:46:16;7.50;;;5.60;;
769;SDS011;368;48.698;9.116;2023-07-08T07:48:43;5.30;;;4.77;;
769;SDS011;368;48.698;9.116;2023-07-08T07:51:10;6.30;;;4.50;;
769;SDS011;368;48.698;9.116;2023-07-08T07:53:37;9.00;;;4.70;;
769;SDS011;368;48.698;9.116;2023-07-08T07:56:05;6.20;;;4.10;;
769;SDS011;368;48.698;9.116;2023-07-08T07:58:32;5.90;;;4.30;;
769;SDS011;368;48.698;9.116;2023-07-08T08:00:59;6.70;;;4.30;;
769;SDS011;368;48.698;9.116;2023-07-08T08:03:26;5.90;;;4.17;;
769;SDS011;368;48.698;9.116;2023-07-08T08:05:53;4.57;;;4.17;;
769;SDS011;368;48.698;9.116;2023-07-08T08:08:20;4.90;;;3.60;;
769;SDS011;368;48.698;9.116;2023-07-08T08:10:47;5.40;;;4.20;;
769;SDS011;368;48.698;9.116;2023-07-08T08:13:16;5.00;;;3.90;;
769;SDS011;368;48.698;9.116;2023-07-08T08:15:42;8.40;;;4.20;;
769;SDS011;368;48.698;9.116;2023-07-08T08:18:09;4.70;;;4.17;;
769;SDS011;368;48.698;9.116;2023-07-08T08:20:36;6.97;;;4.87;;
769;SDS011;368;48.698;9.116;2023-07-08T08:23:05;6.20;;;5.17;;
769;SDS011;368;48.698;9.116;2023-07-08T08:25:33;6.93;;;4.83;;
769;SDS011;368;48.698;9.116;2023-07-08T08:28:00;5.80;;;4.23;;
769;SDS011;368;48.698;9.116;2023-07-08T08:30:29;5.47;;;4.53;;
769;SDS011;368;48.698;9.116;2023-07-08T08:32:57;7.90;;;5.60;;
769;SDS011;368;48.698;9.116;2023-07-08T08:35:25;5.57;;;4.20;;
769;SDS011;368;48.698;9.116;2023-07-08T08:37:52;4.40;;;3.77;;
769;SDS011;368;48.698;9.116;2023-07-08T08:40:19;4.50;;;3.70;;
769;SDS011;368;48.698;9.116;2023-07-08T08:42:50;4.00;;;3.60;;
769;SDS011;368;48.698;9.116;2023-07-08T08:45:19;4.40;;;3.40;;
769;SDS011;368;48.698;9.116;2023-07-08T08:47:52;5.50;;;3.90;;
769;SDS011;368;48.698;9.116;2023-07-08T08:50:27;4.07;;;3.50;;
769;SDS011;368;48.698;9.116;2023-07-08T08:52:58;6.10;;;3.47;;
769;SDS011;368;48.698;9.116;2023-07-08T08:55:27;4.00;;;3.20;;
769;SDS011;368;48.698;9.116;2023-07-08T08:57:57;3.40;;;3.00;;
769;SDS011;368;48.698;9.116;2023-07-08T09:00:35;4.80;;;3.00;;
769;SDS011;368;48.698;9.116;2023-07-08T09:03:12;3.70;;;2.70;;
769;SDS011;368;48.698;9.116;2023-07-08T09:05:42;3.20;;;2.70;;
769;SDS011;368;48.698;9.116;2023-07-08T09:08:12;2.57;;;2.37;;
769;SDS011;368;48.698;9.116;2023-07-08T09:10:44;3.50;;;3.10;;
769;SDS011;368;48.698;9.116;2023-07-08T09:13:15;3.13;;;2.27;;
769;SDS011;368;48.698;9.116;2023-07-08T09:15:47;3.10;;;2.50;;
769;SDS011;368;48.698;9.116;2023-07-08T09:18:23;3.63;;;3.00;;
769;SDS011;368;48.698;9.116;2023-07-08T09:20:55;5.60;;;3.50;;
769;SDS011;368;48.698;9.116;2023-07-08T09:23:25;3.10;;;2.80;;
769;SDS011;368;48.698;9.116;2023-07-08T09:25:57;3.00;;;2.80;;
769;SDS011;368;48.698;9.116;2023-07-08T09:28:37;4.90;;;3.37;;
769;SDS011;368;48.698;9.116;2023-07-08T09:31:06;5.23;;;3.23;;
769;SDS011;368;48.698;9.116;2023-07-08T09:33:38;5.00;;;3.60;;
769;SDS011;368;48.698;9.116;2023-07-08T09:36:15;4.27;;;2.97;;
769;SDS011;368;48.698;9.116;2023-07-08T09:38:46;4.50;;;3.20;;
769;SDS011;368;48.698;9.116;2023-07-08T09:41:16;5.10;;;3.40;;
769;SDS011;368;48.698;9.116;2023-07-08T09:44:02;6.13;;;4.27;;
769;SDS011;368;48.698;9.116;2023-07-08T09:46:35;3.83;;;3.43;;
769;SDS011;368;48.698;9.116;2023-07-08T09:49:12;3.23;;;2.93;;
769;SDS011;368;48.698;9.116;2023-07-08T09:51:42;4.93;;;4.30;;
769;SDS011;368;48.698;9.116;2023-07-08T09:54:09;7.73;;;3.33;;
769;SDS011;368;48.698;9.116;2023-07-08T09:56:38;5.03;;;3.43;;
769;SDS011;368;48.698;9.116;2023-07-08T09:59:09;3.93;;;3.30;;
769;SDS011;368;48.698;9.116;2023-07-08T10:01:40;3.57;;;3.27;;
769;SDS011;368;48.698;9.116;2023-07-08T10:04:09;4.60;;;2.90;;
769;SDS011;368;48.698;9.116;2023-07-08T10:06:38;3.90;;;3.00;;
769;SDS011;368;48.698;9.116;2023-07-08T10:09:08;4.00;;;2.87;;
769;SDS011;368;48.698;9.116;2023-07-08T10:11:41;4.67;;;3.10;;
769;SDS011;368;48.698;9.116;2023-07-08T10:14:13;3.20;;;2.80;;
769;SDS011;368;48.698;9.116;2023-07-08T10:16:50;2.80;;;2.60;;
769;SDS011;368;48.698;9.116;2023-07-08T10:19:19;3.90;;;2.80;;
769;SDS011;368;48.698;9.116;2023-07-08T10:21:48;2.67;;;2.47;;
769;SDS011;368;48.698;9.116;2023-07-08T10:24:33;2.73;;;2.50;;
769;SDS011;368;48.698;9.116;2023-07-08T10:27:15;3.10;;;2.50;;
769;SDS011;368;48.698;9.116;2023-07-08T10:29:58;3.00;;;2.60;;
769;SDS011;368;48.698;9.116;2023-07-08T10:32:36;4.20;;;2.50;;
769;SDS011;368;48.698;9.116;2023-07-08T10:35:15;2.27;;;2.07;;
769;SDS011;368;48.698;9.116;2023-07-08T10:37:48;5.73;;;3.40;;
769;SDS011;368;48.698;9.116;2023-07-08T10:40:30;3.50;;;3.13;;
769;SDS011;368;48.698;9.116;2023-07-08T10:43:08;3.73;;;2.67;;
769;SDS011;368;48.698;9.116;2023-07-08T10:45:52;3.97;;;3.20;;
769;SDS011;368;48.698;9.116;2023-07-08T10:48:29;2.80;;;2.60;;
769;SDS011;368;48.698;9.116;2023-07-08T10:51:12;3.60;;;3.30;;
769;SDS011;368;48.698;9.116;2023-07-08T10:53:53;4.07;;;3.00;;
769;SDS011;368;48.698;9.116;2023-07-08T10:56:29;3.73;;;2.50;;
769;SDS011;368;48.698;9.116;2023-07-08T11:02:10;3.77;;;3.37;;
769;SDS011;368;48.698;9.116;2023-07-08T11:04:51;3.50;;;3.17;;
769;SDS011;368;48.698;9.116;2023-07-08T11:07:30;2.80;;;2.30;;
769;SDS011;368;48.698;9.116;2023-07-08T11:10:04;2.80;;;2.40;;
769;SDS011;368;48.698;9.116;2023-07-08T11:12:38;2.93;;;2.63;;
769;SDS011;368;48.698;9.116;2023-07-08T11:15:13;3.80;;;2.73;;
769;SDS011;368;48.698;9.116;2023-07-08T11:17:45;3.93;;;2.77;;
769;SDS011;368;48.698;9.116;2023-07-08T11:20:18;3.17;;;2.87;;
769;SDS011;368;48.698;9.116;2023-07-08T11:22:51;4.37;;;3.23;;
769;SDS011;368;48.698;9.116;2023-07-08T11:25:22;5.13;;;3.43;;
769;SDS011;368;48.698;9.116;2023-07-08T11:27:53;3.80;;;3.13;;
769;SDS011;368;48.698;9.116;2023-07-08T11:30:24;3.27;;;2.97;;
769;SDS011;368;48.698;9.116;2023-07-08T11:32:56;3.13;;;2.80;;
769;SDS011;368;48.698;9.116;2023-07-08T11:35:32;4.23;;;3.80;;
769;SDS011;368;48.698;9.116;2023-07-08T11:38:04;3.30;;;2.60;;
769;SDS011;368;48.698;9.116;2023-07-08T11:40:31;3.53;;;2.70;;
769;SDS011;368;48.698;9.116;2023-07-08T11:43:15;3.30;;;3.10;;
769;SDS011;368;48.698;9.116;2023-07-08T11:45:42;3.37;;;2.50;;
769;SDS011;368;48.698;9.116;2023-07-08T11:48:12;3.13;;;2.90;;
769;SDS011;368;48.698;9.116;2023-07-08T11:50:41;2.80;;;2.27;;
769;SDS011;368;48.698;9.116;2023-07-08T11:53:13;3.83;;;3.43;;
769;SDS011;368;48.698;9.116;2023-07-08T11:55:59;3.23;;;2.73;;
769;SDS011;368;48.698;9.116;2023-07-08T11:58:28;2.80;;;2.57;;
769;SDS011;368;48.698;9.116;2023-07-08T12:00:57;2.33;;;2.13;;
769;SDS011;368;48.698;9.116;2023-07-08T12:03:29;3.00;;;2.80;;
769;SDS011;368;48.698;9.116;2023-07-08T12:06:00;3.17;;;2.50;;
769;SDS011;368;48.698;9.116;2023-07-08T12:08:34;3.77;;;2.70;;
769;SDS011;368;48.698;9.116;2023-07-08T12:11:07;3.00;;;2.23;;
769;SDS011;368;48.698;9.116;2023-07-08T12:13:37;3.13;;;2.83;;
769;SDS011;368;48.698;9.116;2023-07-08T12:16:04;4.63;;;3.10;;
769;SDS011;368;48.698;9.116;2023-07-08T12:18:36;3.67;;;2.47;;
769;SDS011;368;48.698;9.116;2023-07-08T12:21:11;2.13;;;1.93;;
769;SDS011;368;48.698;9.116;2023-07-08T12:23:45;2.37;;;2.17;;
769;SDS011;368;48.698;9.116;2023-07-08T12:26:12;3.10;;;2.80;;
769;SDS011;368;48.698;9.116;2023-07-08T12:28:40;2.10;;;1.77;;
769;SDS011;368;48.698;9.116;2023-07-08T12:31:09;2.93;;;2.30;;
769;SDS011;368;48.698;9.116;2023-07-08T12:33:41;3.77;;;2.83;;
769;SDS011;368;48.698;9.116;2023-07-08T12:36:10;3.17;;;2.37;;
769;SDS011;368;48.698;9.116;2023-07-08T12:38:42;2.57;;;2.37;;
769;SDS011;368;48.698;9.116;2023-07-08T12:41:12;2.60;;;2.40;;
769;SDS011;368;48.698;9.116;2023-07-08T12:43:44;2.20;;;2.00;;
769;SDS011;368;48.698;9.116;2023-07-08T12:46:12;3.13;;;2.83;;
769;SDS011;368;48.698;9.116;2023-07-08T12:48:41;3.97;;;2.97;;
769;SDS011;368;48.698;9.116;2023-07-08T12:51:09;3.67;;;2.37;;
769;SDS011;368;48.698;9.116;2023-07-08T12:53:38;3.53;;;3.23;;
769;SDS011;368;48.698;9.116;2023-07-08T12:56:06;3.33;;;2.60;;
769;SDS011;368;48.698;9.116;2023-07-08T12:58:34;3.07;;;2.50;;
769;SDS011;368;48.698;9.116;2023-07-08T13:01:05;2.60;;;2.40;;
769;SDS011;368;48.698;9.116;2023-07-08T13:03:34;2.37;;;2.17;;
769;SDS011;368;48.698;9.116;2023-07-08T13:06:03;3.03;;;2.27;;
769;SDS011;368;48.698;9.116;2023-07-08T13:08:30;4.80;;;2.50;;
769;SDS011;368;48.698;9.116;2023-07-08T13:11:01;3.17;;;2.90;;
769;SDS011;368;48.698;9.116;2023-07-08T13:13:31;3.20;;;2.13;;
769;SDS011;368;48.698;9.116;2023-07-08T13:16:01;2.93;;;2.50;;
769;SDS011;368;48.698;9.116;2023-07-08T13:18:30;4.00;;;3.60;;
769;SDS011;368;48.698;9.116;2023-07-08T13:20:59;2.70;;;2.10;;
769;SDS011;368;48.698;9.116;2023-07-08T13:23:26;3.80;;;2.20;;
769;SDS011;368;48.698;9.116;2023-07-08T13:25:54;3.40;;;2.40;;
769;SDS011;368;48.698;9.116;2023-07-08T13:28:22;3.60;;;3.30;;
769;SDS011;368;48.698;9.116;2023-07-08T13:30:52;3.40;;;3.00;;
769;SDS011;368;48.698;9.116;2023-07-08T13:33:21;2.00;;;1.80;;
769;SDS011;368;48.698;9.116;2023-07-08T13:35:50;2.90;;;2.53;;
769;SDS011;368;48.698;9.116;2023-07-08T13:38:18;3.20;;;1.93;;
769;SDS011;368;48.698;9.116;2023-07-08T13:40:48;2.70;;;2.43;;
769;SDS011;368;48.698;9.116;2023-07-08T13:43:16;4.47;;;2.70;;
769;SDS011;368;48.698;9.116;2023-07-08T13:45:48;4.83;;;3.30;;
769;SDS011;368;48.698;9.116;2023-07-08T13:48:20;3.90;;;2.83;;
769;SDS011;368;48.698;9.116;2023-07-08T13:50:54;3.67;;;2.37;;
769;SDS011;368;48.698;9.116;2023-07-08T13:53:24;3.47;;;2.63;;
769;SDS011;368;48.698;9.116;2023-07-08T13:55:58;2.00;;;1.80;;
769;SDS011;368;48.698;9.116;2023-07-08T13:58:26;2.43;;;2.23;;
769;SDS011;368;48.698;9.116;2023-07-08T14:00:55;2.77;;;1.90;;
769;SDS011;368;48.698;9.116;2023-07-08T14:03:23;2.83;;;2.13;;
769;SDS011;368;48.698;9.116;2023-07-08T14:05:51;3.00;;;2.00;;
769;SDS011;368;48.698;9.116;2023-07-08T14:08:17;3.30;;;2.53;;
769;SDS011;368;48.698;9.116;2023-07-08T14:10:44;2.43;;;2.20;;
769;SDS011;368;48.698;9.116;2023-07-08T14:13:11;2.50;;;2.00;;
769;SDS011;368;48.698;9.116;2023-07-08T14:15:38;2.17;;;1.97;;
769;SDS011;368;48.698;9.116;2023-07-08T14:18:05;4.03;;;2.40;;
769;SDS011;368;48.698;9.116;2023-07-08T14:20:36;3.10;;;1.80;;
769;SDS011;368;48.698;9.116;2023-07-08T14:23:03;2.83;;;2.10;;
769;SDS011;368;48.698;9.116;2023-07-08T14:25:30;2.60;;;2.27;;
769;SDS011;368;48.698;9.116;2023-07-08T14:27:56;3.27;;;2.20;;
769;SDS011;368;48.698;9.116;2023-07-08T14:30:23;2.53;;;2.33;;
769;SDS011;368;48.698;9.116;2023-07-08T14:32:50;4.33;;;2.97;;
769;SDS011;368;48.698;9.116;2023-07-08T14:35:17;4.43;;;3.90;;
769;SDS011;368;48.698;9.116;2023-07-08T14:37:50;3.37;;;3.07;;
769;SDS011;368;48.698;9.116;2023-07-08T14:40:19;2.40;;;2.13;;
769;SDS011;368;48.698;9.116;2023-07-08T14:42:50;2.70;;;1.97;;
769;SDS011;368;48.698;9.116;2023-07-08T14:45:26;2.70;;;2.20;;
769;SDS011;368;48.698;9.116;2023-07-08T14:47:55;2.77;;;2.00;;
769;SDS011;368;48.698;9.116;2023-07-08T14:50:22;3.40;;;2.70;;
769;SDS011;368;48.698;9.116;2023-07-08T14:52:52;2.20;;;2.00;;
769;SDS011;368;48.698;9.116;2023-07-08T14:55:18;2.40;;;2.20;;
769;SDS011;368;48.698;9.116;2023-07-08T14:57:46;3.87;;;2.33;;
769;SDS011;368;48.698;9.116;2023-07-08T15:00:14;3.80;;;2.80;;
769;SDS011;368;48.698;9.116;2023-07-08T15:02:43;2.83;;;2.30;;
769;SDS011;368;48.698;9.116;2023-07-08T15:05:15;2.10;;;1.90;;
769;SDS011;368;48.698;9.116;2023-07-08T15:07:43;3.00;;;2.33;;
769;SDS011;368;48.698;9.116;2023-07-08T15:10:12;2.60;;;1.60;;
769;SDS011;368;48.698;9.116;2023-07-08T15:12:38;2.47;;;2.27;;
769;SDS011;368;48.698;9.116;2023-07-08T15:15:09;3.20;;;2.07;;
769;SDS011;368;48.698;9.116;2023-07-08T15:17:41;3.73;;;3.00;;
769;SDS011;368;48.698;9.116;2023-07-08T15:20:09;3.50;;;3.03;;
769;SDS011;368;48.698;9.116;2023-07-08T15:22:39;2.33;;;1.90;;
769;SDS011;368;48.698;9.116;2023-07-08T15:25:08;2.77;;;2.57;;
769;SDS011;368;48.698;9.116;2023-07-08T15:27:37;3.20;;;2.40;;
769;SDS011;368;48.698;9.116;2023-07-08T15:30:08;2.93;;;2.40;;
769;SDS011;368;48.698;9.116;2023-07-08T15:32:42;2.67;;;2.10;;
769;SDS011;368;48.698;9.116;2023-07-08T15:35:11;2.60;;;2.13;;
769;SDS011;368;48.698;9.116;2023-07-08T15:37:39;3.47;;;2.10;;
769;SDS011;368;48.698;9.116;2023-07-08T15:40:07;1.90;;;1.70;;
769;SDS011;368;48.698;9.116;2023-07-08T15:42:37;1.77;;;1.67;;
769;SDS011;368;48.698;9.116;2023-07-08T15:45:11;2.63;;;2.43;;
769;SDS011;368;48.698;9.116;2023-07-08T15:47:40;4.53;;;2.47;;
769;SDS011;368;48.698;9.116;2023-07-08T15:50:09;3.90;;;2.40;;
769;SDS011;368;48.698;9.116;2023-07-08T15:52:37;3.73;;;2.33;;
769;SDS011;368;48.698;9.116;2023-07-08T15:55:04;2.50;;;2.00;;
769;SDS011;368;48.698;9.116;2023-07-08T15:57:31;3.87;;;2.20;;
769;SDS011;368;48.698;9.116;2023-07-08T16:00:01;2.27;;;1.80;;